Time;durP1;ratioP1;P1;durP2;ratioP2;P2;SDS_P1;SDS_P2;PMS_P1;PMS_P2;Temp;Humidity;BMP_temperature;BMP_pressure;BME280_temperature;BME280_humidity;BME280_pressure;Samples;Min_cycle;Max_cycle;Signal;HPM_P1;HPM_P2
2022/08/28 00:02:05;;;;;;;0.10;0.10;;;15.40;99.90;;;;;;4887074;29;20452;-88
2022/08/28 00:04:31;;;;;;;0.10;0.10;;;15.30;99.90;;;;;;4890697;29;20271;-88
2022/08/28 00:06:56;;;;;;;0.10;0.10;;;15.30;99.90;;;;;;4882255;29;20186;-88
2022/08/28 00:09:22;;;;;;;0.10;0.10;;;15.40;99.90;;;;;;4887600;29;20193;-88
2022/08/28 00:11:49;;;;;;;0.10;0.10;;;15.40;99.90;;;;;;4894156;29;20739;-88
2022/08/28 00:14:17;;;;;;;0.10;0.10;;;15.30;99.90;;;;;;4890713;29;20196;-88
2022/08/28 00:16:43;;;;;;;0.10;0.10;;;15.30;99.90;;;;;;4888081;29;20492;-88
2022/08/28 00:19:09;;;;;;;0.10;0.10;;;15.20;99.90;;;;;;4891975;29;20445;-88
2022/08/28 00:21:36;;;;;;;0.10;0.10;;;15.30;99.90;;;;;;4894408;29;20661;-88
2022/08/28 00:24:01;;;;;;;0.10;0.10;;;15.30;99.90;;;;;;4894199;29;20835;-88
2022/08/28 00:29:11;;;;;;;0.10;0.10;;;15.30;99.90;;;;;;4896395;29;20259;-88
2022/08/28 00:31:38;;;;;;;0.10;0.10;;;15.20;99.90;;;;;;4895330;29;20544;-88
2022/08/28 00:34:04;;;;;;;0.10;0.10;;;15.20;99.90;;;;;;4909720;29;20843;-88
2022/08/28 00:36:30;;;;;;;0.10;0.10;;;15.20;99.90;;;;;;4893949;29;20524;-88
2022/08/28 00:38:59;;;;;;;0.10;0.10;;;15.20;99.90;;;;;;4894662;29;20449;-88
2022/08/28 00:41:25;;;;;;;0.10;0.10;;;15.20;99.90;;;;;;4896339;29;20181;-88
2022/08/28 00:44:09;;;;;;;0.10;0.10;;;15.10;99.90;;;;;;4896583;29;20454;-88
2022/08/28 00:46:36;;;;;;;0.10;0.10;;;15.10;99.90;;;;;;4895200;29;20465;-88
2022/08/28 00:49:02;;;;;;;0.10;0.10;;;15.10;99.90;;;;;;4896398;29;20464;-88
2022/08/28 00:54:12;;;;;;;0.10;0.10;;;15.00;99.90;;;;;;4882320;29;20237;-88
2022/08/28 00:56:39;;;;;;;0.10;0.10;;;15.00;99.90;;;;;;4893156;29;20502;-89
2022/08/28 00:59:08;;;;;;;0.10;0.10;;;15.00;99.90;;;;;;4894661;29;20456;-88
2022/08/28 01:01:34;;;;;;;0.10;0.10;;;14.90;99.90;;;;;;4890547;29;20532;-87
2022/08/28 01:04:04;;;;;;;0.10;0.10;;;15.00;99.90;;;;;;4890988;29;20453;-85
2022/08/28 01:06:31;;;;;;;0.10;0.10;;;14.90;99.90;;;;;;4892656;29;20192;-88
2022/08/28 01:08:57;;;;;;;0.10;0.10;;;14.90;99.90;;;;;;4890290;29;20586;-85
2022/08/28 01:11:22;;;;;;;0.10;0.10;;;14.90;99.90;;;;;;4893942;29;20512;-86
2022/08/28 01:13:50;;;;;;;0.10;0.10;;;14.90;99.90;;;;;;4888119;29;20441;-85
2022/08/28 01:16:17;;;;;;;0.10;0.10;;;14.90;99.90;;;;;;4892799;29;20232;-86
2022/08/28 01:18:44;;;;;;;0.10;0.10;;;14.70;99.90;;;;;;4893324;29;20537;-85
2022/08/28 01:21:36;;;;;;;0.10;0.10;;;14.80;99.90;;;;;;4894990;29;21698;-86
2022/08/28 01:24:13;;;;;;;0.10;0.10;;;14.80;99.90;;;;;;4887092;29;20497;-85
2022/08/28 01:26:38;;;;;;;0.10;0.10;;;14.70;99.90;;;;;;4910301;29;20969;-88
2022/08/28 01:29:06;;;;;;;0.10;0.10;;;14.80;99.90;;;;;;4893217;29;20474;-85
2022/08/28 01:31:31;;;;;;;0.10;0.10;;;14.70;99.90;;;;;;4891964;29;20698;-85
2022/08/28 01:34:00;;;;;;;0.10;0.10;;;14.70;99.90;;;;;;4891508;29;20467;-86
2022/08/28 01:36:27;;;;;;;0.10;0.10;;;14.70;99.90;;;;;;4897736;29;20185;-85
2022/08/28 01:38:59;;;;;;;0.10;0.10;;;14.60;99.90;;;;;;4895731;29;20449;-85
2022/08/28 01:41:25;;;;;;;0.10;0.10;;;14.60;99.90;;;;;;4894910;29;20445;-88
2022/08/28 01:43:52;;;;;;;0.10;0.10;;;14.60;99.90;;;;;;4893667;29;20457;-87
2022/08/28 01:46:18;;;;;;;0.10;0.10;;;14.60;99.90;;;;;;4895256;29;20276;-86
2022/08/28 01:48:43;;;;;;;0.10;0.10;;;14.60;99.90;;;;;;4893295;29;20461;-88
2022/08/28 01:51:10;;;;;;;0.10;0.10;;;14.50;99.90;;;;;;4895266;29;20295;-87
2022/08/28 01:53:37;;;;;;;0.10;0.10;;;14.50;99.90;;;;;;4896477;29;20181;-85
2022/08/28 01:56:07;;;;;;;0.10;0.10;;;14.40;99.90;;;;;;4891904;29;20550;-85
2022/08/28 01:58:34;;;;;;;0.10;0.10;;;14.40;99.90;;;;;;4893756;29;20836;-86
2022/08/28 02:01:00;;;;;;;0.10;0.10;;;14.40;99.90;;;;;;4895473;29;20918;-86
2022/08/28 02:03:26;;;;;;;0.10;0.10;;;14.40;99.90;;;;;;4908067;29;20532;-86
2022/08/28 02:05:51;;;;;;;0.10;0.10;;;14.40;99.90;;;;;;4894086;29;20189;-85
2022/08/28 02:08:17;;;;;;;0.10;0.10;;;14.40;99.90;;;;;;4895799;29;20948;-85
2022/08/28 02:10:43;;;;;;;0.10;0.10;;;14.40;99.90;;;;;;4892943;29;20205;-86
2022/08/28 02:13:10;;;;;;;0.10;0.10;;;14.40;99.90;;;;;;4907251;29;20208;-85
2022/08/28 02:15:38;;;;;;;0.10;0.10;;;14.30;99.90;;;;;;4907600;29;20855;-86
2022/08/28 02:18:04;;;;;;;0.10;0.10;;;14.40;99.90;;;;;;4895009;29;20807;-85
2022/08/28 02:20:32;;;;;;;0.10;0.10;;;14.40;99.90;;;;;;4894011;29;20516;-85
2022/08/28 02:22:58;;;;;;;0.10;0.10;;;14.30;99.90;;;;;;4894913;29;20496;-85
2022/08/28 02:25:25;;;;;;;0.10;0.10;;;14.30;99.90;;;;;;4893009;29;20468;-86
2022/08/28 02:27:50;;;;;;;0.10;0.10;;;14.30;99.90;;;;;;4892832;29;20560;-85
2022/08/28 02:30:16;;;;;;;0.10;0.10;;;14.30;99.90;;;;;;4889490;29;20930;-86
2022/08/28 02:32:44;;;;;;;0.10;0.10;;;14.20;99.90;;;;;;4890445;29;20258;-86
2022/08/28 02:35:12;;;;;;;0.10;0.10;;;14.30;99.90;;;;;;4894658;29;20452;-86
2022/08/28 02:37:38;;;;;;;0.10;0.10;;;14.30;99.90;;;;;;4892252;29;20467;-85
2022/08/28 02:40:05;;;;;;;0.20;0.20;;;14.20;99.90;;;;;;4892025;29;20445;-85
2022/08/28 02:42:30;;;;;;;0.10;0.10;;;14.20;99.90;;;;;;4890926;29;20537;-85
2022/08/28 02:44:58;;;;;;;0.10;0.10;;;14.10;99.90;;;;;;4895224;29;20872;-85
2022/08/28 02:47:23;;;;;;;0.10;0.10;;;14.10;99.90;;;;;;4890812;29;20713;-85
2022/08/28 02:49:49;;;;;;;0.10;0.10;;;14.10;99.90;;;;;;4892137;29;20465;-85
2022/08/28 02:52:14;;;;;;;0.13;0.10;;;14.10;99.90;;;;;;4892970;29;20393;-85
2022/08/28 02:54:40;;;;;;;0.10;0.10;;;14.10;99.90;;;;;;4894079;29;20192;-84
2022/08/28 02:57:07;;;;;;;0.10;0.10;;;14.10;99.90;;;;;;4889580;29;20193;-84
2022/08/28 02:59:35;;;;;;;0.10;0.10;;;14.10;99.90;;;;;;4894407;29;20193;-85
2022/08/28 03:02:02;;;;;;;0.10;0.10;;;14.10;99.90;;;;;;4891525;29;20460;-85
2022/08/28 03:04:30;;;;;;;0.10;0.10;;;14.00;99.90;;;;;;4893530;29;20484;-85
2022/08/28 03:06:56;;;;;;;0.20;0.20;;;13.90;99.90;;;;;;4893612;29;20464;-85
2022/08/28 03:09:22;;;;;;;0.10;0.10;;;13.90;99.90;;;;;;4909241;29;20449;-85
2022/08/28 03:11:47;;;;;;;0.10;0.10;;;13.90;99.90;;;;;;4891729;29;21096;-85
2022/08/28 03:14:13;;;;;;;0.10;0.10;;;13.80;99.90;;;;;;4893129;29;20197;-85
2022/08/28 03:16:38;;;;;;;0.10;0.10;;;13.90;99.90;;;;;;4892925;29;20248;-85
2022/08/28 03:19:04;;;;;;;0.10;0.10;;;13.90;99.90;;;;;;4886389;29;20600;-85
2022/08/28 03:21:29;;;;;;;0.10;0.10;;;13.90;99.90;;;;;;4892193;29;20204;-85
2022/08/28 03:23:55;;;;;;;0.10;0.10;;;13.90;99.90;;;;;;4891763;29;20204;-86
2022/08/28 03:26:22;;;;;;;0.10;0.10;;;13.90;99.90;;;;;;4890938;29;20324;-85
2022/08/28 03:28:51;;;;;;;0.10;0.10;;;13.80;99.90;;;;;;4892797;29;20192;-86
2022/08/28 03:31:22;;;;;;;0.10;0.10;;;13.80;99.90;;;;;;4893623;29;20505;-85
2022/08/28 03:33:48;;;;;;;0.20;0.20;;;13.70;99.90;;;;;;4893154;29;20457;-85
2022/08/28 03:36:20;;;;;;;0.17;0.17;;;13.60;99.90;;;;;;4908151;29;20540;-85
2022/08/28 03:38:46;;;;;;;0.10;0.10;;;13.70;99.90;;;;;;4884075;29;20465;-85
2022/08/28 03:41:16;;;;;;;0.10;0.10;;;13.70;99.90;;;;;;4901981;29;20457;-86
2022/08/28 03:43:41;;;;;;;0.10;0.10;;;13.70;99.90;;;;;;4890914;29;20460;-85
2022/08/28 03:46:11;;;;;;;0.10;0.10;;;13.70;99.90;;;;;;4906550;29;20450;-86
2022/08/28 03:48:37;;;;;;;0.10;0.10;;;13.60;99.90;;;;;;4892866;29;20197;-86
2022/08/28 03:51:14;;;;;;;0.10;0.10;;;13.60;99.90;;;;;;4891779;29;20560;-85
2022/08/28 03:53:40;;;;;;;0.10;0.10;;;13.60;99.90;;;;;;4893304;29;20472;-85
2022/08/28 03:56:07;;;;;;;0.10;0.10;;;13.60;99.90;;;;;;4890872;29;20967;-85
2022/08/28 03:58:33;;;;;;;0.10;0.10;;;13.60;99.90;;;;;;4892258;29;20205;-86
2022/08/28 04:00:59;;;;;;;0.10;0.10;;;13.60;99.90;;;;;;4890346;29;21021;-85
2022/08/28 04:03:24;;;;;;;0.10;0.10;;;13.50;99.90;;;;;;4893450;29;20193;-85
2022/08/28 04:05:50;;;;;;;0.10;0.10;;;13.60;99.90;;;;;;4890297;29;20268;-85
2022/08/28 04:08:18;;;;;;;0.10;0.10;;;13.60;99.90;;;;;;4891432;29;20200;-85
2022/08/28 04:10:44;;;;;;;0.20;0.20;;;13.50;99.90;;;;;;4892562;29;20484;-84
2022/08/28 04:13:11;;;;;;;0.10;0.10;;;13.50;99.90;;;;;;4890190;29;20556;-85
2022/08/28 04:15:37;;;;;;;0.10;0.10;;;13.40;99.90;;;;;;4886159;29;20477;-84
2022/08/28 04:18:03;;;;;;;0.10;0.10;;;13.50;99.90;;;;;;4888784;29;20457;-85
2022/08/28 04:20:28;;;;;;;0.10;0.10;;;13.40;99.90;;;;;;4887460;29;20225;-84
2022/08/28 04:22:54;;;;;;;0.10;0.10;;;13.40;99.90;;;;;;4891240;29;21008;-85
2022/08/28 04:25:20;;;;;;;0.10;0.10;;;13.40;99.90;;;;;;4892430;29;20200;-85
2022/08/28 04:27:47;;;;;;;0.10;0.10;;;13.40;99.90;;;;;;4891727;29;20193;-85
2022/08/28 04:30:13;;;;;;;0.10;0.10;;;13.50;99.90;;;;;;4891890;29;21003;-85
2022/08/28 04:32:38;;;;;;;0.10;0.10;;;13.50;99.90;;;;;;4892455;29;20496;-85
2022/08/28 04:35:05;;;;;;;0.10;0.10;;;13.50;99.90;;;;;;4888968;29;20197;-84
2022/08/28 04:37:31;;;;;;;0.10;0.10;;;13.40;99.90;;;;;;4879202;29;20658;-85
2022/08/28 04:39:57;;;;;;;0.10;0.10;;;13.40;99.90;;;;;;4889265;29;20445;-85
2022/08/28 04:42:23;;;;;;;0.20;0.20;;;13.40;99.90;;;;;;4893894;29;20197;-85
2022/08/28 04:44:48;;;;;;;0.10;0.10;;;13.40;99.90;;;;;;4908433;29;20199;-84
2022/08/28 04:47:14;;;;;;;0.10;0.10;;;13.40;99.90;;;;;;4889829;29;20200;-85
2022/08/28 04:49:39;;;;;;;0.10;0.10;;;13.50;99.90;;;;;;4893811;29;20208;-85
2022/08/28 04:52:05;;;;;;;0.10;0.10;;;13.50;99.90;;;;;;4889458;29;20221;-85
2022/08/28 04:54:33;;;;;;;0.10;0.10;;;13.40;99.90;;;;;;4897597;29;20192;-85
2022/08/28 04:56:59;;;;;;;0.10;0.10;;;13.40;99.90;;;;;;4884067;29;20201;-85
2022/08/28 04:59:26;;;;;;;0.10;0.10;;;13.50;99.90;;;;;;4887284;29;20449;-85
2022/08/28 05:01:52;;;;;;;0.20;0.20;;;13.50;99.90;;;;;;4889185;29;20462;-84
2022/08/28 05:04:18;;;;;;;0.10;0.10;;;13.50;99.90;;;;;;4890324;29;20481;-85
2022/08/28 05:06:45;;;;;;;0.13;0.13;;;13.50;99.90;;;;;;4890217;29;20592;-86
2022/08/28 05:09:13;;;;;;;0.10;0.10;;;13.50;99.90;;;;;;4895578;29;20449;-84
2022/08/28 05:11:39;;;;;;;0.10;0.10;;;13.50;99.90;;;;;;4891435;29;20600;-84
2022/08/28 05:14:06;;;;;;;0.10;0.10;;;13.60;99.90;;;;;;4908040;29;20888;-84
2022/08/28 05:16:38;;;;;;;0.10;0.10;;;13.50;99.90;;;;;;4908277;29;20497;-84
2022/08/28 05:19:03;;;;;;;0.10;0.10;;;13.60;99.90;;;;;;4894356;29;20524;-84
2022/08/28 05:21:29;;;;;;;0.20;0.20;;;13.60;99.90;;;;;;4905665;29;20457;-84
2022/08/28 05:23:56;;;;;;;0.10;0.10;;;13.70;99.90;;;;;;4890151;29;20229;-83
2022/08/28 05:26:22;;;;;;;0.17;0.17;;;13.80;99.90;;;;;;4890070;29;20601;-85
2022/08/28 05:28:48;;;;;;;0.10;0.10;;;13.80;99.90;;;;;;4891845;29;20449;-84
2022/08/28 05:31:16;;;;;;;0.10;0.10;;;13.90;99.90;;;;;;4894793;29;20496;-84
2022/08/28 05:33:46;;;;;;;0.10;0.10;;;13.90;99.90;;;;;;4897236;29;20240;-84
2022/08/28 05:36:12;;;;;;;0.10;0.10;;;14.00;99.90;;;;;;4894752;29;20485;-85
2022/08/28 05:38:38;;;;;;;0.10;0.10;;;14.10;99.90;;;;;;4895854;29;20869;-84
2022/08/28 05:41:04;;;;;;;0.10;0.10;;;14.10;99.90;;;;;;4897540;29;20454;-84
2022/08/28 05:43:30;;;;;;;0.10;0.10;;;14.20;99.90;;;;;;4895772;29;20496;-84
2022/08/28 05:46:06;;;;;;;0.10;0.10;;;14.20;99.90;;;;;;4893442;29;20192;-82
2022/08/28 05:48:32;;;;;;;0.10;0.10;;;14.30;99.90;;;;;;4895816;29;20441;-84
2022/08/28 05:51:02;;;;;;;0.10;0.10;;;14.30;99.90;;;;;;4892314;29;20563;-84
2022/08/28 05:53:27;;;;;;;0.10;0.10;;;14.40;99.90;;;;;;4893704;29;20540;-83
2022/08/28 05:55:53;;;;;;;0.10;0.10;;;14.50;99.90;;;;;;4895803;29;20559;-84
2022/08/28 05:58:27;;;;;;;0.10;0.10;;;14.50;99.90;;;;;;4896167;29;20250;-84
2022/08/28 06:00:53;;;;;;;0.10;0.10;;;14.50;99.90;;;;;;4890077;29;20203;-82
2022/08/28 06:03:20;;;;;;;0.10;0.10;;;14.60;99.90;;;;;;4889878;29;20449;-84
2022/08/28 06:05:45;;;;;;;0.10;0.10;;;14.70;99.90;;;;;;4894360;29;20724;-84
2022/08/28 06:08:11;;;;;;;0.10;0.10;;;14.80;99.90;;;;;;4893671;29;20449;-83
2022/08/28 06:10:43;;;;;;;0.10;0.10;;;14.90;99.90;;;;;;4893341;29;20288;-86
2022/08/28 06:13:08;;;;;;;0.10;0.10;;;14.90;99.90;;;;;;4893939;29;20189;-86
2022/08/28 06:15:40;;;;;;;0.10;0.10;;;15.00;99.90;;;;;;4888498;29;20491;-87
2022/08/28 06:18:06;;;;;;;0.10;0.10;;;15.20;99.90;;;;;;4887400;29;20569;-87
2022/08/28 06:20:36;;;;;;;0.10;0.10;;;15.30;99.90;;;;;;4908571;29;20552;-88
2022/08/28 06:23:02;;;;;;;0.10;0.10;;;15.30;99.90;;;;;;4891789;29;20217;-88
2022/08/28 06:25:27;;;;;;;0.10;0.10;;;15.40;99.90;;;;;;4892479;29;20488;-86
2022/08/28 06:27:53;;;;;;;0.10;0.10;;;15.40;99.90;;;;;;4891980;29;20201;-87
2022/08/28 06:30:18;;;;;;;0.10;0.10;;;15.60;99.90;;;;;;4889635;29;20181;-87
2022/08/28 06:32:47;;;;;;;0.10;0.10;;;15.70;99.90;;;;;;4890608;29;20225;-88
2022/08/28 06:35:12;;;;;;;0.10;0.10;;;15.70;99.90;;;;;;4892465;29;20225;-88
2022/08/28 06:37:38;;;;;;;0.10;0.10;;;15.70;99.90;;;;;;4891086;29;20449;-87
2022/08/28 06:40:03;;;;;;;0.10;0.10;;;15.90;99.90;;;;;;4890526;29;20189;-88
2022/08/28 06:42:30;;;;;;;0.10;0.10;;;16.00;99.90;;;;;;4890904;29;20200;-87
2022/08/28 06:44:56;;;;;;;0.10;0.10;;;16.10;99.90;;;;;;4892942;29;20271;-89
2022/08/28 06:47:21;;;;;;;0.10;0.10;;;16.10;99.90;;;;;;4906968;29;20580;-87
2022/08/28 06:49:47;;;;;;;0.10;0.10;;;16.30;99.90;;;;;;4890906;29;20457;-88
2022/08/28 06:52:12;;;;;;;0.10;0.10;;;16.40;99.90;;;;;;4891845;29;20739;-86
2022/08/28 06:54:38;;;;;;;0.10;0.10;;;16.50;99.90;;;;;;4892166;29;20687;-89
2022/08/28 06:57:04;;;;;;;0.10;0.10;;;16.50;99.90;;;;;;4893007;29;20199;-88
2022/08/28 06:59:29;;;;;;;0.10;0.10;;;16.50;99.90;;;;;;4890860;29;20211;-88
2022/08/28 07:01:55;;;;;;;0.10;0.10;;;16.70;99.90;;;;;;4891864;29;20561;-89
2022/08/28 07:04:20;;;;;;;0.10;0.10;;;16.80;99.90;;;;;;4891304;29;20228;-87
2022/08/28 07:06:49;;;;;;;0.10;0.10;;;16.90;99.90;;;;;;4892096;29;20236;-87
2022/08/28 07:09:14;;;;;;;0.10;0.10;;;17.00;99.90;;;;;;4893422;29;20272;-88
2022/08/28 07:11:44;;;;;;;0.10;0.10;;;17.10;99.90;;;;;;4889791;29;20569;-87
2022/08/28 07:14:09;;;;;;;0.10;0.10;;;17.20;99.90;;;;;;4891124;29;20189;-87
2022/08/28 07:16:37;;;;;;;0.10;0.10;;;17.30;99.90;;;;;;4905918;29;20485;-88
2022/08/28 07:19:04;;;;;;;0.10;0.10;;;17.30;99.90;;;;;;4892035;29;20742;-86
2022/08/28 07:21:32;;;;;;;0.10;0.10;;;17.40;99.90;;;;;;4902493;29;20447;-87
2022/08/28 07:23:57;;;;;;;0.10;0.10;;;17.50;99.90;;;;;;4886173;29;20453;-87
2022/08/28 07:26:24;;;;;;;0.10;0.10;;;17.60;99.90;;;;;;4888762;29;20957;-87
2022/08/28 07:28:53;;;;;;;0.10;0.10;;;17.70;99.90;;;;;;4904776;29;20771;-88
2022/08/28 07:31:22;;;;;;;0.10;0.00;;;17.70;99.90;;;;;;4887102;29;20890;-87
2022/08/28 07:33:48;;;;;;;0.10;0.10;;;17.60;99.90;;;;;;4886709;29;20445;-87
2022/08/28 07:36:18;;;;;;;0.10;0.10;;;17.70;99.90;;;;;;4888658;29;20500;-88
2022/08/28 07:38:43;;;;;;;0.10;0.10;;;18.00;99.90;;;;;;4903856;29;20481;-87
2022/08/28 07:41:20;;;;;;;0.10;0.10;;;18.00;99.90;;;;;;4889376;29;20491;-86
2022/08/28 07:46:31;;;;;;;0.10;0.10;;;17.80;99.90;;;;;;4893485;29;20448;-87
2022/08/28 07:49:00;;;;;;;0.10;0.10;;;17.50;99.90;;;;;;4890662;29;20453;-87
2022/08/28 07:51:26;;;;;;;0.10;0.10;;;17.70;99.90;;;;;;4884869;29;20493;-86
2022/08/28 07:53:53;;;;;;;0.10;0.10;;;17.90;99.90;;;;;;4888427;29;20450;-89
2022/08/28 07:56:19;;;;;;;0.10;0.10;;;18.30;99.90;;;;;;4886600;29;20486;-87
2022/08/28 07:58:46;;;;;;;0.10;0.10;;;18.30;99.90;;;;;;4891856;29;20468;-89
2022/08/28 08:01:11;;;;;;;0.10;0.10;;;18.70;99.90;;;;;;4885055;29;21178;-88
2022/08/28 08:03:37;;;;;;;0.10;0.10;;;18.90;99.90;;;;;;4889134;29;20942;-89
2022/08/28 08:06:04;;;;;;;0.10;0.10;;;18.80;99.90;;;;;;4895960;29;20208;-89
2022/08/28 08:08:32;;;;;;;0.10;0.07;;;18.60;99.90;;;;;;4891265;29;20366;-89
2022/08/28 08:11:07;;;;;;;0.10;0.10;;;18.90;99.90;;;;;;4889905;29;20493;-89
2022/08/28 08:13:34;;;;;;;0.10;0.10;;;19.30;99.90;;;;;;4893561;29;20509;-90
2022/08/28 08:16:11;;;;;;;0.10;0.10;;;19.20;99.90;;;;;;4890678;29;20477;-86
2022/08/28 08:18:38;;;;;;;0.10;0.00;;;19.40;99.90;;;;;;4882333;29;20445;-89
2022/08/28 08:21:05;;;;;;;0.10;0.00;;;19.20;99.90;;;;;;4887910;29;20470;-89
2022/08/28 08:23:33;;;;;;;0.10;0.10;;;19.20;99.90;;;;;;4893753;29;20453;-87
2022/08/28 08:26:03;;;;;;;0.10;0.00;;;19.10;99.90;;;;;;4880229;29;20513;-88
2022/08/28 08:28:29;;;;;;;0.10;0.00;;;19.50;99.90;;;;;;4901217;29;20548;-86
2022/08/28 08:31:07;;;;;;;0.10;0.00;;;19.30;99.90;;;;;;4887594;29;20524;-87
2022/08/28 08:33:33;;;;;;;0.10;0.00;;;19.10;99.90;;;;;;4890803;29;20227;-89
2022/08/28 08:35:59;;;;;;;0.10;0.00;;;18.90;99.90;;;;;;4892153;29;20965;-88
2022/08/28 08:38:24;;;;;;;0.10;0.10;;;18.80;99.90;;;;;;4893660;29;20860;-88
2022/08/28 08:40:50;;;;;;;0.10;0.00;;;19.00;99.90;;;;;;4893557;29;20481;-89
2022/08/28 08:43:18;;;;;;;0.10;0.10;;;19.40;99.90;;;;;;4896727;29;20896;-88
2022/08/28 08:45:45;;;;;;;0.10;0.00;;;19.60;99.90;;;;;;4896267;29;20268;-88
2022/08/28 08:48:27;;;;;;;0.10;0.10;;;19.60;99.90;;;;;;4889127;29;20456;-89
2022/08/28 08:50:58;;;;;;;0.10;0.00;;;19.70;99.90;;;;;;4891775;29;20453;-88
2022/08/28 08:53:33;;;;;;;0.10;0.00;;;19.90;99.90;;;;;;4897689;29;21017;-91
2022/08/28 08:56:01;;;;;;;0.10;0.00;;;19.90;99.90;;;;;;4882549;29;20424;-88
2022/08/28 08:58:30;;;;;;;0.10;0.00;;;19.70;99.90;;;;;;4892390;29;20453;-88
2022/08/28 09:01:00;;;;;;;0.10;0.00;;;19.70;99.90;;;;;;4891884;29;20473;-89
2022/08/28 09:03:55;;;;;;;0.10;0.00;;;19.50;99.90;;;;;;4890602;29;20452;-91
2022/08/28 09:06:35;;;;;;;0.10;0.00;;;19.10;99.90;;;;;;4863160;29;20438;-89
2022/08/28 09:09:06;;;;;;;0.10;0.00;;;19.60;99.90;;;;;;4888051;29;20449;-89
2022/08/28 09:11:54;;;;;;;0.10;0.10;;;20.00;99.90;;;;;;4886877;29;20500;-88
2022/08/28 09:14:31;;;;;;;0.10;0.00;;;20.80;99.90;;;;;;4892244;29;20463;-89
2022/08/28 09:16:59;;;;;;;0.10;0.00;;;20.90;99.90;;;;;;4895704;29;20472;-88
2022/08/28 09:19:24;;;;;;;0.10;0.00;;;20.60;99.90;;;;;;4895329;29;20457;-86
2022/08/28 09:21:50;;;;;;;0.10;0.00;;;20.30;99.90;;;;;;4894110;29;20834;-89
2022/08/28 09:24:42;;;;;;;0.10;0.00;;;20.00;99.90;;;;;;4894400;29;20189;-88
2022/08/28 09:27:26;;;;;;;0.10;0.00;;;19.60;99.90;;;;;;4895088;29;20233;-89
2022/08/28 09:30:09;;;;;;;0.10;0.00;;;19.50;99.90;;;;;;4892478;29;20473;-88
2022/08/28 09:32:45;;;;;;;0.10;0.00;;;19.60;99.90;;;;;;4891274;29;20496;-87
2022/08/28 09:35:13;;;;;;;0.10;0.00;;;19.80;99.90;;;;;;4893739;29;20452;-88
2022/08/28 09:37:41;;;;;;;0.10;0.00;;;19.60;99.90;;;;;;4893331;29;20453;-88
2022/08/28 09:40:24;;;;;;;0.10;0.00;;;19.70;99.90;;;;;;4891030;29;20592;-88
2022/08/28 09:43:28;;;;;;;0.10;0.00;;;19.70;99.90;;;;;;4890021;29;20887;-89
2022/08/28 09:46:19;;;;;;;0.10;0.00;;;20.50;99.90;;;;;;4892749;29;20464;-90
2022/08/28 09:48:47;;;;;;;0.10;0.00;;;21.00;99.90;;;;;;4896183;29;20492;-88
2022/08/28 09:51:28;;;;;;;0.10;0.00;;;21.80;99.90;;;;;;4892497;29;20493;-87
2022/08/28 09:53:53;;;;;;;0.10;0.00;;;22.20;99.90;;;;;;4895120;29;20437;-90
2022/08/28 09:56:38;;;;;;;0.10;0.00;;;22.70;99.90;;;;;;4895102;29;20453;-90
2022/08/28 09:59:15;;;;;;;0.10;0.00;;;22.50;99.90;;;;;;4894112;29;20228;-88
2022/08/28 10:01:48;;;;;;;0.10;0.00;;;22.70;99.90;;;;;;4893534;29;20449;-90
2022/08/28 10:04:36;;;;;;;0.10;0.00;;;22.10;99.90;;;;;;4895152;29;20429;-91
2022/08/28 10:07:32;;;;;;;0.10;0.00;;;21.60;99.90;;;;;;4887105;29;20452;-91
2022/08/28 10:10:43;;;;;;;0.10;0.00;;;22.70;99.90;;;;;;4888550;29;20476;-90
2022/08/28 10:13:33;;;;;;;0.10;0.00;;;22.90;99.90;;;;;;4874077;29;20592;-89
2022/08/28 10:16:24;;;;;;;0.10;0.00;;;22.80;99.90;;;;;;4869543;29;20490;-90
2022/08/28 10:19:16;;;;;;;0.10;0.00;;;23.00;99.90;;;;;;4891781;29;20453;-91
2022/08/28 10:21:53;;;;;;;0.10;0.00;;;23.20;99.90;;;;;;4884507;29;20445;-89
2022/08/28 10:24:53;;;;;;;0.10;0.00;;;23.90;99.90;;;;;;4893944;29;20540;-93
2022/08/28 10:27:27;;;;;;;0.10;0.00;;;23.10;99.90;;;;;;4893786;29;20441;-90
2022/08/28 10:29:59;;;;;;;0.10;0.00;;;23.00;99.90;;;;;;4895403;29;20444;-94
2022/08/28 10:32:51;;;;;;;0.10;0.00;;;22.90;99.90;;;;;;4893654;29;20540;-89
2022/08/28 10:35:41;;;;;;;0.10;0.00;;;22.30;99.90;;;;;;4891344;29;20454;-93
2022/08/28 10:38:17;;;;;;;0.10;0.00;;;22.70;99.90;;;;;;4884676;29;20813;-92
2022/08/28 10:41:02;;;;;;;0.10;0.00;;;22.50;99.90;;;;;;4896577;29;21080;-92
2022/08/28 10:43:49;;;;;;;0.10;0.00;;;22.90;99.90;;;;;;4892690;29;20449;-88
2022/08/28 10:46:44;;;;;;;0.10;0.00;;;23.90;99.90;;;;;;4889421;29;20477;-88
2022/08/28 10:49:19;;;;;;;0.10;0.00;;;24.60;99.90;;;;;;4888012;29;20565;-87
2022/08/28 10:51:51;;;;;;;0.10;0.00;;;25.10;99.90;;;;;;4889934;29;20515;-89
2022/08/28 10:55:03;;;;;;;0.10;0.00;;;24.50;99.90;;;;;;4890620;29;20456;-90
2022/08/28 10:57:53;;;;;;;0.10;0.00;;;23.90;99.90;;;;;;4891104;29;20516;-91
2022/08/28 11:00:23;;;;;;;0.10;0.00;;;23.70;99.90;;;;;;4892365;29;20467;-90
2022/08/28 11:03:01;;;;;;;0.10;0.00;;;24.30;99.90;;;;;;4894800;29;20461;-87
2022/08/28 11:05:56;;;;;;;0.10;0.00;;;24.90;99.90;;;;;;4887125;29;20448;-89
2022/08/28 11:08:29;;;;;;;0.10;0.00;;;25.80;99.90;;;;;;4889508;29;20862;-90
2022/08/28 11:11:00;;;;;;;0.10;0.00;;;25.50;99.90;;;;;;4887221;29;20453;-89
2022/08/28 11:13:38;;;;;;;0.10;0.00;;;26.10;99.90;;;;;;4887242;29;20472;-90
2022/08/28 11:16:32;;;;;;;0.10;0.00;;;24.80;99.90;;;;;;4889028;29;20504;-92
2022/08/28 11:19:07;;;;;;;0.10;0.00;;;24.70;99.90;;;;;;4874700;29;20474;-89
2022/08/28 11:21:41;;;;;;;0.10;0.00;;;26.00;99.90;;;;;;4890876;29;20466;-87
2022/08/28 11:24:20;;;;;;;0.10;0.00;;;26.00;99.90;;;;;;4889600;29;20453;-89
2022/08/28 11:26:58;;;;;;;0.10;0.00;;;26.00;99.90;;;;;;4890141;29;20485;-87
2022/08/28 11:30:01;;;;;;;0.10;0.00;;;26.50;99.90;;;;;;4888698;29;20476;-88
2022/08/28 11:32:56;;;;;;;0.10;0.00;;;27.10;99.90;;;;;;4888501;29;20579;-88
2022/08/28 11:35:28;;;;;;;0.10;0.10;;;27.10;99.90;;;;;;4891021;29;20483;-89
2022/08/28 11:37:55;;;;;;;0.10;0.00;;;26.20;99.90;;;;;;4889301;29;20456;-88
2022/08/28 11:40:26;;;;;;;0.10;0.00;;;27.30;99.90;;;;;;4907175;29;20785;-87
2022/08/28 11:42:52;;;;;;;0.10;0.00;;;28.00;99.90;;;;;;4888580;29;20488;-89
2022/08/28 11:45:46;;;;;;;0.10;0.00;;;28.00;99.90;;;;;;4890643;29;20504;-87
2022/08/28 11:48:24;;;;;;;0.10;0.00;;;28.10;99.90;;;;;;4889643;29;20197;-88
2022/08/28 11:50:51;;;;;;;0.10;0.00;;;25.90;99.90;;;;;;4891286;29;20540;-88
2022/08/28 11:53:45;;;;;;;0.10;0.00;;;25.40;99.90;;;;;;4889019;29;20457;-90
2022/08/28 11:56:43;;;;;;;0.10;0.00;;;24.90;99.90;;;;;;4903048;29;20461;-88
2022/08/28 11:59:40;;;;;;;0.10;0.00;;;24.40;99.90;;;;;;4888469;29;20457;-89
2022/08/28 12:02:42;;;;;;;0.10;0.00;;;24.70;99.90;;;;;;4869219;29;20449;-87
2022/08/28 12:05:13;;;;;;;0.10;0.00;;;25.50;99.90;;;;;;4888427;29;20498;-85
2022/08/28 12:07:49;;;;;;;0.10;0.00;;;27.00;99.90;;;;;;4886739;29;20552;-86
2022/08/28 12:10:38;;;;;;;0.10;0.00;;;28.40;99.90;;;;;;4891487;29;20476;-88
2022/08/28 12:13:06;;;;;;;0.10;0.10;;;29.10;99.90;;;;;;4891033;29;20521;-88
2022/08/28 12:15:32;;;;;;;0.10;0.00;;;29.10;99.90;;;;;;4891210;29;20476;-89
2022/08/28 12:18:03;;;;;;;0.10;0.00;;;28.00;99.90;;;;;;4894444;29;20464;-88
2022/08/28 12:20:49;;;;;;;0.10;0.00;;;26.00;99.90;;;;;;4894982;29;20512;-86
2022/08/28 12:23:33;;;;;;;0.10;0.00;;;25.00;99.90;;;;;;4889920;29;20480;-90
2022/08/28 12:26:07;;;;;;;0.10;0.00;;;24.80;99.90;;;;;;4906684;29;21064;-90
2022/08/28 12:28:53;;;;;;;0.10;0.00;;;26.50;99.90;;;;;;4890817;29;20952;-87
2022/08/28 12:32:20;;;;;;;0.10;0.00;;;27.30;99.90;;;;;;4894825;29;20473;-89
2022/08/28 12:34:45;;;;;;;0.10;0.00;;;28.30;99.90;;;;;;4891262;29;20460;-88
2022/08/28 12:37:26;;;;;;;0.10;0.00;;;27.70;99.90;;;;;;4893213;29;20456;-86
2022/08/28 12:39:53;;;;;;;0.10;0.00;;;27.20;99.90;;;;;;4890155;29;20480;-89
2022/08/28 12:42:22;;;;;;;0.10;0.00;;;27.20;99.90;;;;;;4894086;29;20540;-87
2022/08/28 12:44:48;;;;;;;0.10;0.00;;;27.20;99.90;;;;;;4892725;29;20477;-86
2022/08/28 12:47:16;;;;;;;0.10;0.00;;;25.70;99.90;;;;;;4893753;29;20488;-87
2022/08/28 12:49:42;;;;;;;0.10;0.00;;;24.90;99.90;;;;;;4893102;29;20193;-89
2022/08/28 12:52:23;;;;;;;0.10;0.00;;;24.20;99.90;;;;;;4891933;29;20492;-88
2022/08/28 12:54:50;;;;;;;0.10;0.00;;;23.90;99.90;;;;;;4892866;29;20188;-87
2022/08/28 12:57:19;;;;;;;0.10;0.00;;;23.70;99.90;;;;;;4905640;29;20465;-88
2022/08/28 12:59:54;;;;;;;0.10;0.00;;;23.90;99.90;;;;;;4890946;29;20448;-85
2022/08/28 13:02:29;;;;;;;0.10;0.00;;;25.20;99.90;;;;;;4890954;29;20874;-87
2022/08/28 13:05:02;;;;;;;0.10;0.00;;;25.20;99.90;;;;;;4888721;29;20967;-85
2022/08/28 13:07:59;;;;;;;0.10;0.00;;;25.80;99.90;;;;;;4892598;29;20456;-85
2022/08/28 13:10:54;;;;;;;0.10;0.00;;;25.00;99.90;;;;;;4885938;29;20490;-85
2022/08/28 13:13:42;;;;;;;0.10;0.00;;;24.40;99.90;;;;;;4883144;29;20472;-85
2022/08/28 13:16:09;;;;;;;0.10;0.00;;;24.10;99.90;;;;;;4893259;29;20508;-85
2022/08/28 13:18:46;;;;;;;0.10;0.00;;;23.50;99.90;;;;;;4892357;29;20469;-87